Santa Barbara — 3FWW8 — position and weather

sailwx.info

Track history (hours):
 
Tides and Currents Weather Stations Pressure Air Temp Water Temp Dewpoint Dewpoint Depression Visibility Wind Speed Wind Dir Waves Ship Positions

Santa Barbara

Last reported at 2017-Nov-18 08:21 UTC. Time now 2017-Nov-21 04:46 UTC.
Position S 25°18' W 047°22'.

Length 225 m; draft 6.8 m.

Type: Cargo ship. MMSI: 372230000.

Date/timePositionNaut miles runAvg speedWind from/ knotsBaromVisibWave heightAir tempDewpointWater temp
2017-Nov-18 08:21S 25°18' W 047°22'513.9
2017-Nov-18 08:00S 25°17' W 047°17'713.9
2017-Nov-18 07:30S 25°14' W 047°10'713.9
2017-Nov-18 07:00S 25°11' W 047°03'713.9
2017-Nov-18 06:30S 25°08' W 046°56'714.0
2017-Nov-18 06:00S 25°06' W 046°49'714.2
2017-Nov-18 05:30S 25°03' W 046°42'714.4
2017-Nov-18 05:00S 25°00' W 046°34'714.4
2017-Nov-18 04:30S 24°58' W 046°27'714.4
2017-Nov-18 04:00S 24°55' W 046°20'714.3
2017-Nov-18 03:30S 24°52' W 046°12'714.2
2017-Nov-18 03:00S 24°49' W 046°05'714.3
2017-Nov-18 02:30S 24°46' W 045°58'714.5
2017-Nov-18 02:00S 24°44' W 045°51'1614.4
2017-Nov-18 00:55S 24°37' W 045°35'614.3
2017-Nov-18 00:29S 24°35' W 045°28'  
Track history (hours):
 
Tides and Currents Weather Stations Pressure Air Temp Water Temp Dewpoint Dewpoint Depression Visibility Wind Speed Wind Dir Waves Ship Positions

Santa Barbara

Last reported at 2017-Nov-18 08:21 UTC. Time now 2017-Nov-21 04:46 UTC.
Position S 25°18' W 047°22'.

Length 225 m; draft 6.8 m.

Type: Cargo ship. MMSI: 372230000.

Date/timePositionNaut miles runAvg speedWind from/ knotsBaromVisibWave heightAir tempDewpointWater temp
2017-Nov-18 08:21S 25°18' W 047°22'513.9
2017-Nov-18 08:00S 25°17' W 047°17'713.9
2017-Nov-18 07:30S 25°14' W 047°10'713.9
2017-Nov-18 07:00S 25°11' W 047°03'713.9
2017-Nov-18 06:30S 25°08' W 046°56'714.0
2017-Nov-18 06:00S 25°06' W 046°49'714.2
2017-Nov-18 05:30S 25°03' W 046°42'714.4
2017-Nov-18 05:00S 25°00' W 046°34'714.4
2017-Nov-18 04:30S 24°58' W 046°27'714.4
2017-Nov-18 04:00S 24°55' W 046°20'714.3
2017-Nov-18 03:30S 24°52' W 046°12'714.2
2017-Nov-18 03:00S 24°49' W 046°05'714.3
2017-Nov-18 02:30S 24°46' W 045°58'714.5
2017-Nov-18 02:00S 24°44' W 045°51'1614.4
2017-Nov-18 00:55S 24°37' W 045°35'614.3
2017-Nov-18 00:29S 24°35' W 045°28'  

Dump ship's entire track history